Excellence — KTDP — position and weather

sailwx.info

Track history (hours):
 
Tides and Currents Weather Stations Pressure Air Temp Water Temp Dewpoint Dewpoint Depression Visibility Wind Speed Wind Dir Waves Ship Positions

Excellence

Owner: AJVS, INC, Seattle, WA. More information available from US FCC via Universal Licensing System and Coast Guard Vessel Documentation Center.

Last reported at 2016-Aug-24 01:22 UTC. Time now 2016-Aug-24 08:30 UTC.
Position N 42°23' W 125°10'.

Length 112 m; draft 6 m.

Type: Other ship. MMSI: 338162000.

Date/timePositionNaut miles runAvg speedWind from/ knotsBaromVisibWave heightAir tempDewpointWater temp
2016-Aug-24 01:22N 42°23' W 125°10'5 1.1
2016-Aug-23 21:18N 42°22' W 125°04'33 4.7
2016-Aug-23 14:18N 42°54' W 125°08'6 7.4
2016-Aug-23 13:32N 42°59' W 125°12'6 5.9
2016-Aug-23 12:31N 43°05' W 125°13'4 4.4
2016-Aug-23 11:33N 43°09' W 125°13'3 2.6
2016-Aug-23 10:33N 43°06' W 125°12'4 3.4
2016-Aug-23 09:19N 43°02' W 125°14'65 4.0
2016-Aug-22 17:08N 44°07' W 125°07'710.8
2016-Aug-22 16:28N 44°14' W 125°08'1010.9
2016-Aug-22 15:33N 44°24' W 125°09'1110.8
2016-Aug-22 14:33N 44°35' W 125°10'1110.7
2016-Aug-22 13:33N 44°45' W 125°11'1110.3
2016-Aug-22 12:32N 44°56' W 125°12'1010.0
2016-Aug-22 11:31N 45°06' W 125°13'1010.2
2016-Aug-22 10:33N 45°16' W 125°13'1010.3
2016-Aug-22 09:33N 45°26' W 125°13'1010.4
2016-Aug-22 08:33N 45°36' W 125°12'1110.5
2016-Aug-22 07:33N 45°47' W 125°12'1110.6
2016-Aug-22 06:33N 45°58' W 125°11'1110.7
2016-Aug-22 05:33N 46°08' W 125°11'1110.8
2016-Aug-22 04:33N 46°19' W 125°11'1110.8
2016-Aug-22 03:33N 46°30' W 125°12'1110.6
2016-Aug-22 02:33N 46°40' W 125°12'1110.7
2016-Aug-22 01:33N 46°51' W 125°13'1010.3
2016-Aug-22 00:33N 47°01' W 125°12'1110.3
2016-Aug-21 23:31N 47°11' W 125°04'1110.5
2016-Aug-21 22:28N 47°21' W 124°57'1 0.6
2016-Aug-21 20:34N 47°22' W 124°58'9 9.5
2016-Aug-21 19:33N 47°13' W 124°54'9 9.3
2016-Aug-21 18:33N 47°22' W 124°54'2 2.4
2016-Aug-21 17:33N 47°23' W 124°51'2 1.6
2016-Aug-21 16:33N 47°24' W 124°50'4 4.0
2016-Aug-21 15:33N 47°20' W 124°52'2 1.9
2016-Aug-21 14:33N 47°22' W 124°51'7 6.8
2016-Aug-21 13:33N 47°18' W 124°58'4 3.8
2016-Aug-21 12:33N 47°14' W 124°57'2 2.4
2016-Aug-21 11:33N 47°16' W 124°56'5 5.4
2016-Aug-21 10:34N 47°21' W 124°57'5 4.7
2016-Aug-21 09:33N 47°25' W 125°02'3 3.0
2016-Aug-21 08:33N 47°22' W 125°01'3 3.2
2016-Aug-21 07:32N 47°19' W 125°00'3 3.3
2016-Aug-21 06:32N 47°16' W 124°58'3 2.6
2016-Aug-21 05:31N 47°17' W 124°55'2 2.2
2016-Aug-21 04:33N 47°17' W 124°58'3 2.8
2016-Aug-21 03:33N 47°14' W 124°57'0 0.4
2016-Aug-21 02:33N 47°14' W 124°57'4 4.1
2016-Aug-21 01:34N 47°18' W 124°56'6 6.4
2016-Aug-21 00:33N 47°12' W 124°57'2 1.7
2016-Aug-20 23:33N 47°13' W 124°55'1 1.0
2016-Aug-20 22:33N 47°14' W 124°57'4 4.2
2016-Aug-20 21:33N 47°18' W 124°57'3 2.6
2016-Aug-20 20:33N 47°15' W 124°57'1 0.7
2016-Aug-20 19:33N 47°15' W 124°56'2 2.0
2016-Aug-20 18:33N 47°13' W 124°56'5 5.4
2016-Aug-20 17:33N 47°18' W 124°56'5 4.8
2016-Aug-20 16:33N 47°14' W 124°55'5 4.7
2016-Aug-20 15:33N 47°18' W 124°57'3 3.0
2016-Aug-20 14:33N 47°15' W 124°56'2 2.1
2016-Aug-20 13:34N 47°17' W 124°57'5 5.0
2016-Aug-20 12:33N 47°21' W 124°51'3 3.0
2016-Aug-20 11:33N 47°24' W 124°51'2 2.0
2016-Aug-20 10:33N 47°23' W 124°54'2 2.4
2016-Aug-20 09:33N 47°21' W 124°56'6 5.6
2016-Aug-20 08:33N 47°26' W 124°59'6 5.7
2016-Aug-20 07:33N 47°32' W 125°02'6 5.6
2016-Aug-20 06:33N 47°37' W 125°06'6 5.7
2016-Aug-20 05:33N 47°42' W 125°09'4 4.0
2016-Aug-20 04:34N 47°46' W 125°10'4 3.7
2016-Aug-20 03:33N 47°43' W 125°08'2 2.5
2016-Aug-20 02:33N 47°45' W 125°10'3 2.6
2016-Aug-20 01:33N 47°42' W 125°10'4 4.3
2016-Aug-20 00:33N 47°46' W 125°12'4 4.2
2016-Aug-19 23:32N 47°45' W 125°06'10 9.5
2016-Aug-19 22:31N 47°49' W 125°19'7 6.5
2016-Aug-19 21:24N 47°47' W 125°09'7 6.1
2016-Aug-19 20:15N 47°40' W 125°08'4 3.3
2016-Aug-19 19:11N 47°43' W 125°11'5 6.2
2016-Aug-19 18:22N 47°39' W 125°07'6 3.4
2016-Aug-19 16:28N 47°45' W 125°08'7 3.5
2016-Aug-19 14:33N 47°38' W 125°08'3 2.7
2016-Aug-19 13:26N 47°41' W 125°07'5 5.9
2016-Aug-19 12:33N 47°45' W 125°11'2 2.4
2016-Aug-19 11:33N 47°43' W 125°09'4 3.3
2016-Aug-19 10:23N 47°40' W 125°05'5 5.6
2016-Aug-19 09:33N 47°44' W 125°09'6 5.7
2016-Aug-19 08:34N 47°49' W 125°13'1 0.6
2016-Aug-19 07:33N 47°48' W 125°14'4 4.3
2016-Aug-19 06:32N 47°44' W 125°14'4 3.8
2016-Aug-19 05:33N 47°41' W 125°11'3 3.0
2016-Aug-19 04:33N 47°44' W 125°10'4 3.7
2016-Aug-19 03:33N 47°41' W 125°07'6 5.8
2016-Aug-19 02:33N 47°36' W 125°12'4 4.1
2016-Aug-19 01:33N 47°39' W 125°07'3 2.8
2016-Aug-19 00:33N 47°42' W 125°07'2 1.6
2016-Aug-18 23:33N 47°42' W 125°09'2 2.3
2016-Aug-18 22:33N 47°40' W 125°09'1 1.3
2016-Aug-18 21:33N 47°39' W 125°08'1 1.3
2016-Aug-18 20:25N 47°40' W 125°09'6 7.0
2016-Aug-18 19:31N 47°46' W 125°12'3 2.8
2016-Aug-18 18:24N 47°44' W 125°09'2 2.2
2016-Aug-18 17:19N 47°46' W 125°09'1 1.0
2016-Aug-18 16:24N 47°45' W 125°08'3 3.2
2016-Aug-18 15:33N 47°48' W 125°10'1 1.0
2016-Aug-18 14:29N 47°47' W 125°09'5 5.2
2016-Aug-18 13:34N 47°50' W 125°14'2 2.0
2016-Aug-18 12:33N 47°51' W 125°17'3 3.3
2016-Aug-18 11:33N 47°48' W 125°14'3 3.4
2016-Aug-18 10:33N 47°46' W 125°10'3 3.0
2016-Aug-18 09:33N 47°48' W 125°14'5 4.8
2016-Aug-18 08:26N 47°51' W 125°20'4 4.8
2016-Aug-18 07:32N 47°54' W 125°24'2 2.3
2016-Aug-18 06:33N 47°53' W 125°22'3 3.1
2016-Aug-18 05:33N 47°51' W 125°19'4 4.2
2016-Aug-18 04:33N 47°47' W 125°14'1 1.1
2016-Aug-18 03:33N 47°47' W 125°13'1 1.3
2016-Aug-18 02:33N 47°48' W 125°15'1 0.7
2016-Aug-18 01:33N 47°48' W 125°14'4 3.8
2016-Aug-18 00:33N 47°51' W 125°16'2 2.0
2016-Aug-17 23:33N 47°49' W 125°16'2 1.8
2016-Aug-17 22:33N 47°48' W 125°14'3 3.5
2016-Aug-17 21:33N 47°45' W 125°10'3 2.9
2016-Aug-17 20:34N 47°48' W 125°13'2 2.3
2016-Aug-17 19:33N 47°49' W 125°11'3 2.7
2016-Aug-17 18:33N 47°46' W 125°10'1 1.4
2016-Aug-17 17:33N 47°47' W 125°09'2 1.6
2016-Aug-17 16:33N 47°46' W 125°07'4 3.8
2016-Aug-17 15:31N 47°43' W 125°10'8 8.1
2016-Aug-17 14:32N 47°36' W 125°06'7 5.9
2016-Aug-17 13:26N 47°30' W 125°02'4 4.0
2016-Aug-17 12:21N 47°26' W 124°60'4 4.1
2016-Aug-17 11:23N 47°22' W 124°57'4 4.5
2016-Aug-17 10:33N 47°25' W 125°01'6 5.7
2016-Aug-17 09:33N 47°30' W 125°05'3 3.0
2016-Aug-17 08:33N 47°28' W 125°02'3 2.9
2016-Aug-17 07:34N 47°26' W 124°59'3 3.3
2016-Aug-17 06:33N 47°23' W 124°56'6 5.9
2016-Aug-17 05:31N 47°29' W 124°59'1 1.5
2016-Aug-17 04:33N 47°28' W 125°00'3 3.5
2016-Aug-17 03:33N 47°31' W 125°03'5 5.4
2016-Aug-17 02:33N 47°27' W 124°58'2 2.4
2016-Aug-17 01:33N 47°29' W 124°59'6 5.6
2016-Aug-17 00:33N 47°26' W 124°52'3 2.6
2016-Aug-16 23:33N 47°24' W 124°49'4 3.5
2016-Aug-16 22:33N 47°21' W 124°50'8 8.3
2016-Aug-16 21:33N 47°27' W 124°58'1 0.7
2016-Aug-16 20:33N 47°26' W 124°60'4 3.8
2016-Aug-16 19:33N 47°30' W 124°60'4 4.1
2016-Aug-16 18:33N 47°27' W 124°56'4 4.2
2016-Aug-16 17:33N 47°24' W 124°51'3 2.6
2016-Aug-16 16:33N 47°25' W 124°55'5 4.9
2016-Aug-16 15:33N 47°29' W 124°59'4 4.2
2016-Aug-16 14:33N 47°25' W 124°60'3 3.3
2016-Aug-16 13:33N 47°26' W 124°55'4 3.7
2016-Aug-16 12:33N 47°22' W 124°56'3 2.7
2016-Aug-16 11:33N 47°23' W 124°59'6 5.6
2016-Aug-16 10:33N 47°28' W 125°03'5 4.1
2016-Aug-16 09:15N 47°23' W 124°60'3 4.4
2016-Aug-16 08:27N 47°20' W 124°58'5 5.6
2016-Aug-16 07:32N 47°25' W 125°01'2 0.7
2016-Aug-16 04:24N 47°27' W 125°03'5 5.5
2016-Aug-16 03:29N 47°24' W 124°56'2 1.6
2016-Aug-16 02:17N 47°25' W 124°54'3 4.4
2016-Aug-16 01:33N 47°23' W 124°51'5 4.1
2016-Aug-16 00:26N 47°26' W 124°56'3 3.3
2016-Aug-15 23:24N 47°26' W 124°51'2 2.3
2016-Aug-15 22:33N 47°24' W 124°50'1 0.6
2016-Aug-15 21:33N 47°24' W 124°50'1 1.0
2016-Aug-15 20:29N 47°23' W 124°51'2 2.6
2016-Aug-15 19:33N 47°25' W 124°53'4 3.6
2016-Aug-15 18:33N 47°22' W 124°52'6 5.6
2016-Aug-15 17:33N 47°24' W 124°59'4 4.0
2016-Aug-15 16:33N 47°28' W 124°58'5 4.7
2016-Aug-15 15:33N 47°24' W 124°60'10 8.7
2016-Aug-15 14:25N 47°14' W 125°04'4 4.4
2016-Aug-15 13:33N 47°15' W 124°59'6 5.6
2016-Aug-15 12:33N 47°21' W 125°00'7 5.5
2016-Aug-15 11:22N 47°27' W 125°01'2 2.2
2016-Aug-15 10:33N 47°26' W 125°02'2 1.8
2016-Aug-15 09:31N 47°27' W 125°04'3 3.6
2016-Aug-15 08:33N 47°23' W 125°02'4 3.6
2016-Aug-15 07:33N 47°20' W 125°01'4 3.6
2016-Aug-15 06:33N 47°16' W 124°59'4 2.2
2016-Aug-15 04:34N 47°20' W 124°56'1 0.6
2016-Aug-15 03:33N 47°20' W 124°55'3 2.5
2016-Aug-15 02:33N 47°21' W 124°52'2 2.1
2016-Aug-15 01:33N 47°20' W 124°49'6 5.8
2016-Aug-15 00:33N 47°19' W 124°58'0 0.5
2016-Aug-14 23:33N 47°19' W 124°58'2 2.1
2016-Aug-14 22:33N 47°21' W 124°56'3 2.5
2016-Aug-14 21:33N 47°20' W 124°53'2 1.6
2016-Aug-14 20:34N 47°20' W 124°50'6 6.2
2016-Aug-14 19:33N 47°20' W 124°60'4 4.1
2016-Aug-14 18:33N 47°17' W 124°55'5 5.2
2016-Aug-14 17:33N 47°21' W 124°50'3 3.1
2016-Aug-14 16:33N 47°24' W 124°52'1 1.3
2016-Aug-14 15:33N 47°25' W 124°53'3 3.4
2016-Aug-14 14:33N 47°24' W 124°57'3 3.0
2016-Aug-14 13:33N 47°22' W 124°53'4 4.2
2016-Aug-14 12:33N 47°26' W 124°55'5 5.1
2016-Aug-14 11:33N 47°28' W 125°02'3 3.2
2016-Aug-14 10:33N 47°26' W 125°05'5 5.0
2016-Aug-14 09:33N 47°21' W 125°05'5 5.1
2016-Aug-14 08:33N 47°16' W 125°05'5 5.2
2016-Aug-14 07:33N 47°11' W 125°07'5 5.1
2016-Aug-14 06:33N 47°05' W 125°08'13 6.3
2016-Aug-14 04:33N 46°53' W 125°07'8 7.5
2016-Aug-14 03:33N 46°45' W 125°07'7 7.0
2016-Aug-14 02:33N 46°39' W 125°05'7 6.9
2016-Aug-14 01:33N 46°33' W 124°59'  
Track history (hours):
 
Tides and Currents Weather Stations Pressure Air Temp Water Temp Dewpoint Dewpoint Depression Visibility Wind Speed Wind Dir Waves Ship Positions

Excellence

Owner: AJVS, INC, Seattle, WA. More information available from US FCC via Universal Licensing System and Coast Guard Vessel Documentation Center.

Last reported at 2016-Aug-24 01:22 UTC. Time now 2016-Aug-24 08:30 UTC.
Position N 42°23' W 125°10'.

Length 112 m; draft 6 m.

Type: Other ship. MMSI: 338162000.

Date/timePositionNaut miles runAvg speedWind from/ knotsBaromVisibWave heightAir tempDewpointWater temp
2016-Aug-24 01:22N 42°23' W 125°10'5 1.1
2016-Aug-23 21:18N 42°22' W 125°04'33 4.7
2016-Aug-23 14:18N 42°54' W 125°08'6 7.4
2016-Aug-23 13:32N 42°59' W 125°12'6 5.9
2016-Aug-23 12:31N 43°05' W 125°13'4 4.4
2016-Aug-23 11:33N 43°09' W 125°13'3 2.6
2016-Aug-23 10:33N 43°06' W 125°12'4 3.4
2016-Aug-23 09:19N 43°02' W 125°14'65 4.0
2016-Aug-22 17:08N 44°07' W 125°07'710.8
2016-Aug-22 16:28N 44°14' W 125°08'1010.9
2016-Aug-22 15:33N 44°24' W 125°09'1110.8
2016-Aug-22 14:33N 44°35' W 125°10'1110.7
2016-Aug-22 13:33N 44°45' W 125°11'1110.3
2016-Aug-22 12:32N 44°56' W 125°12'1010.0
2016-Aug-22 11:31N 45°06' W 125°13'1010.2
2016-Aug-22 10:33N 45°16' W 125°13'1010.3
2016-Aug-22 09:33N 45°26' W 125°13'1010.4
2016-Aug-22 08:33N 45°36' W 125°12'1110.5
2016-Aug-22 07:33N 45°47' W 125°12'1110.6
2016-Aug-22 06:33N 45°58' W 125°11'1110.7
2016-Aug-22 05:33N 46°08' W 125°11'1110.8
2016-Aug-22 04:33N 46°19' W 125°11'1110.8
2016-Aug-22 03:33N 46°30' W 125°12'1110.6
2016-Aug-22 02:33N 46°40' W 125°12'1110.7
2016-Aug-22 01:33N 46°51' W 125°13'1010.3
2016-Aug-22 00:33N 47°01' W 125°12'1110.3
2016-Aug-21 23:31N 47°11' W 125°04'1110.5
2016-Aug-21 22:28N 47°21' W 124°57'1 0.6
2016-Aug-21 20:34N 47°22' W 124°58'9 9.5
2016-Aug-21 19:33N 47°13' W 124°54'9 9.3
2016-Aug-21 18:33N 47°22' W 124°54'2 2.4
2016-Aug-21 17:33N 47°23' W 124°51'2 1.6
2016-Aug-21 16:33N 47°24' W 124°50'4 4.0
2016-Aug-21 15:33N 47°20' W 124°52'2 1.9
2016-Aug-21 14:33N 47°22' W 124°51'7 6.8
2016-Aug-21 13:33N 47°18' W 124°58'4 3.8
2016-Aug-21 12:33N 47°14' W 124°57'2 2.4
2016-Aug-21 11:33N 47°16' W 124°56'5 5.4
2016-Aug-21 10:34N 47°21' W 124°57'5 4.7
2016-Aug-21 09:33N 47°25' W 125°02'3 3.0
2016-Aug-21 08:33N 47°22' W 125°01'3 3.2
2016-Aug-21 07:32N 47°19' W 125°00'3 3.3
2016-Aug-21 06:32N 47°16' W 124°58'3 2.6
2016-Aug-21 05:31N 47°17' W 124°55'2 2.2
2016-Aug-21 04:33N 47°17' W 124°58'3 2.8
2016-Aug-21 03:33N 47°14' W 124°57'0 0.4
2016-Aug-21 02:33N 47°14' W 124°57'4 4.1
2016-Aug-21 01:34N 47°18' W 124°56'6 6.4
2016-Aug-21 00:33N 47°12' W 124°57'2 1.7
2016-Aug-20 23:33N 47°13' W 124°55'1 1.0
2016-Aug-20 22:33N 47°14' W 124°57'4 4.2
2016-Aug-20 21:33N 47°18' W 124°57'3 2.6
2016-Aug-20 20:33N 47°15' W 124°57'1 0.7
2016-Aug-20 19:33N 47°15' W 124°56'2 2.0
2016-Aug-20 18:33N 47°13' W 124°56'5 5.4
2016-Aug-20 17:33N 47°18' W 124°56'5 4.8
2016-Aug-20 16:33N 47°14' W 124°55'5 4.7
2016-Aug-20 15:33N 47°18' W 124°57'3 3.0
2016-Aug-20 14:33N 47°15' W 124°56'2 2.1
2016-Aug-20 13:34N 47°17' W 124°57'5 5.0
2016-Aug-20 12:33N 47°21' W 124°51'3 3.0
2016-Aug-20 11:33N 47°24' W 124°51'2 2.0
2016-Aug-20 10:33N 47°23' W 124°54'2 2.4
2016-Aug-20 09:33N 47°21' W 124°56'6 5.6
2016-Aug-20 08:33N 47°26' W 124°59'6 5.7
2016-Aug-20 07:33N 47°32' W 125°02'6 5.6
2016-Aug-20 06:33N 47°37' W 125°06'6 5.7
2016-Aug-20 05:33N 47°42' W 125°09'4 4.0
2016-Aug-20 04:34N 47°46' W 125°10'4 3.7
2016-Aug-20 03:33N 47°43' W 125°08'2 2.5
2016-Aug-20 02:33N 47°45' W 125°10'3 2.6
2016-Aug-20 01:33N 47°42' W 125°10'4 4.3
2016-Aug-20 00:33N 47°46' W 125°12'4 4.2
2016-Aug-19 23:32N 47°45' W 125°06'10 9.5
2016-Aug-19 22:31N 47°49' W 125°19'7 6.5
2016-Aug-19 21:24N 47°47' W 125°09'7 6.1
2016-Aug-19 20:15N 47°40' W 125°08'4 3.3
2016-Aug-19 19:11N 47°43' W 125°11'5 6.2
2016-Aug-19 18:22N 47°39' W 125°07'6 3.4
2016-Aug-19 16:28N 47°45' W 125°08'7 3.5
2016-Aug-19 14:33N 47°38' W 125°08'3 2.7
2016-Aug-19 13:26N 47°41' W 125°07'5 5.9
2016-Aug-19 12:33N 47°45' W 125°11'2 2.4
2016-Aug-19 11:33N 47°43' W 125°09'4 3.3
2016-Aug-19 10:23N 47°40' W 125°05'5 5.6
2016-Aug-19 09:33N 47°44' W 125°09'6 5.7
2016-Aug-19 08:34N 47°49' W 125°13'1 0.6
2016-Aug-19 07:33N 47°48' W 125°14'4 4.3
2016-Aug-19 06:32N 47°44' W 125°14'4 3.8
2016-Aug-19 05:33N 47°41' W 125°11'3 3.0
2016-Aug-19 04:33N 47°44' W 125°10'4 3.7
2016-Aug-19 03:33N 47°41' W 125°07'6 5.8
2016-Aug-19 02:33N 47°36' W 125°12'4 4.1
2016-Aug-19 01:33N 47°39' W 125°07'3 2.8
2016-Aug-19 00:33N 47°42' W 125°07'2 1.6
2016-Aug-18 23:33N 47°42' W 125°09'2 2.3
2016-Aug-18 22:33N 47°40' W 125°09'1 1.3
2016-Aug-18 21:33N 47°39' W 125°08'1 1.3
2016-Aug-18 20:25N 47°40' W 125°09'6 7.0
2016-Aug-18 19:31N 47°46' W 125°12'3 2.8
2016-Aug-18 18:24N 47°44' W 125°09'2 2.2
2016-Aug-18 17:19N 47°46' W 125°09'1 1.0
2016-Aug-18 16:24N 47°45' W 125°08'3 3.2
2016-Aug-18 15:33N 47°48' W 125°10'1 1.0
2016-Aug-18 14:29N 47°47' W 125°09'5 5.2
2016-Aug-18 13:34N 47°50' W 125°14'2 2.0
2016-Aug-18 12:33N 47°51' W 125°17'3 3.3
2016-Aug-18 11:33N 47°48' W 125°14'3 3.4
2016-Aug-18 10:33N 47°46' W 125°10'3 3.0
2016-Aug-18 09:33N 47°48' W 125°14'5 4.8
2016-Aug-18 08:26N 47°51' W 125°20'4 4.8
2016-Aug-18 07:32N 47°54' W 125°24'2 2.3
2016-Aug-18 06:33N 47°53' W 125°22'3 3.1
2016-Aug-18 05:33N 47°51' W 125°19'4 4.2
2016-Aug-18 04:33N 47°47' W 125°14'1 1.1
2016-Aug-18 03:33N 47°47' W 125°13'1 1.3
2016-Aug-18 02:33N 47°48' W 125°15'1 0.7
2016-Aug-18 01:33N 47°48' W 125°14'4 3.8
2016-Aug-18 00:33N 47°51' W 125°16'2 2.0
2016-Aug-17 23:33N 47°49' W 125°16'2 1.8
2016-Aug-17 22:33N 47°48' W 125°14'3 3.5
2016-Aug-17 21:33N 47°45' W 125°10'3 2.9
2016-Aug-17 20:34N 47°48' W 125°13'2 2.3
2016-Aug-17 19:33N 47°49' W 125°11'3 2.7
2016-Aug-17 18:33N 47°46' W 125°10'1 1.4
2016-Aug-17 17:33N 47°47' W 125°09'2 1.6
2016-Aug-17 16:33N 47°46' W 125°07'4 3.8
2016-Aug-17 15:31N 47°43' W 125°10'8 8.1
2016-Aug-17 14:32N 47°36' W 125°06'7 5.9
2016-Aug-17 13:26N 47°30' W 125°02'4 4.0
2016-Aug-17 12:21N 47°26' W 124°60'4 4.1
2016-Aug-17 11:23N 47°22' W 124°57'4 4.5
2016-Aug-17 10:33N 47°25' W 125°01'6 5.7
2016-Aug-17 09:33N 47°30' W 125°05'3 3.0
2016-Aug-17 08:33N 47°28' W 125°02'3 2.9
2016-Aug-17 07:34N 47°26' W 124°59'3 3.3
2016-Aug-17 06:33N 47°23' W 124°56'6 5.9
2016-Aug-17 05:31N 47°29' W 124°59'1 1.5
2016-Aug-17 04:33N 47°28' W 125°00'3 3.5
2016-Aug-17 03:33N 47°31' W 125°03'5 5.4
2016-Aug-17 02:33N 47°27' W 124°58'2 2.4
2016-Aug-17 01:33N 47°29' W 124°59'6 5.6
2016-Aug-17 00:33N 47°26' W 124°52'3 2.6
2016-Aug-16 23:33N 47°24' W 124°49'4 3.5
2016-Aug-16 22:33N 47°21' W 124°50'8 8.3
2016-Aug-16 21:33N 47°27' W 124°58'1 0.7
2016-Aug-16 20:33N 47°26' W 124°60'4 3.8
2016-Aug-16 19:33N 47°30' W 124°60'4 4.1
2016-Aug-16 18:33N 47°27' W 124°56'4 4.2
2016-Aug-16 17:33N 47°24' W 124°51'3 2.6
2016-Aug-16 16:33N 47°25' W 124°55'5 4.9
2016-Aug-16 15:33N 47°29' W 124°59'4 4.2
2016-Aug-16 14:33N 47°25' W 124°60'3 3.3
2016-Aug-16 13:33N 47°26' W 124°55'4 3.7
2016-Aug-16 12:33N 47°22' W 124°56'3 2.7
2016-Aug-16 11:33N 47°23' W 124°59'6 5.6
2016-Aug-16 10:33N 47°28' W 125°03'5 4.1
2016-Aug-16 09:15N 47°23' W 124°60'3 4.4
2016-Aug-16 08:27N 47°20' W 124°58'5 5.6
2016-Aug-16 07:32N 47°25' W 125°01'2 0.7
2016-Aug-16 04:24N 47°27' W 125°03'5 5.5
2016-Aug-16 03:29N 47°24' W 124°56'2 1.6
2016-Aug-16 02:17N 47°25' W 124°54'3 4.4
2016-Aug-16 01:33N 47°23' W 124°51'5 4.1
2016-Aug-16 00:26N 47°26' W 124°56'3 3.3
2016-Aug-15 23:24N 47°26' W 124°51'2 2.3
2016-Aug-15 22:33N 47°24' W 124°50'1 0.6
2016-Aug-15 21:33N 47°24' W 124°50'1 1.0
2016-Aug-15 20:29N 47°23' W 124°51'2 2.6
2016-Aug-15 19:33N 47°25' W 124°53'4 3.6
2016-Aug-15 18:33N 47°22' W 124°52'6 5.6
2016-Aug-15 17:33N 47°24' W 124°59'4 4.0
2016-Aug-15 16:33N 47°28' W 124°58'5 4.7
2016-Aug-15 15:33N 47°24' W 124°60'10 8.7
2016-Aug-15 14:25N 47°14' W 125°04'4 4.4
2016-Aug-15 13:33N 47°15' W 124°59'6 5.6
2016-Aug-15 12:33N 47°21' W 125°00'7 5.5
2016-Aug-15 11:22N 47°27' W 125°01'2 2.2
2016-Aug-15 10:33N 47°26' W 125°02'2 1.8
2016-Aug-15 09:31N 47°27' W 125°04'3 3.6
2016-Aug-15 08:33N 47°23' W 125°02'4 3.6
2016-Aug-15 07:33N 47°20' W 125°01'4 3.6
2016-Aug-15 06:33N 47°16' W 124°59'4 2.2
2016-Aug-15 04:34N 47°20' W 124°56'1 0.6
2016-Aug-15 03:33N 47°20' W 124°55'3 2.5
2016-Aug-15 02:33N 47°21' W 124°52'2 2.1
2016-Aug-15 01:33N 47°20' W 124°49'6 5.8
2016-Aug-15 00:33N 47°19' W 124°58'0 0.5
2016-Aug-14 23:33N 47°19' W 124°58'2 2.1
2016-Aug-14 22:33N 47°21' W 124°56'3 2.5
2016-Aug-14 21:33N 47°20' W 124°53'2 1.6
2016-Aug-14 20:34N 47°20' W 124°50'6 6.2
2016-Aug-14 19:33N 47°20' W 124°60'4 4.1
2016-Aug-14 18:33N 47°17' W 124°55'5 5.2
2016-Aug-14 17:33N 47°21' W 124°50'3 3.1
2016-Aug-14 16:33N 47°24' W 124°52'1 1.3
2016-Aug-14 15:33N 47°25' W 124°53'3 3.4
2016-Aug-14 14:33N 47°24' W 124°57'3 3.0
2016-Aug-14 13:33N 47°22' W 124°53'4 4.2
2016-Aug-14 12:33N 47°26' W 124°55'5 5.1
2016-Aug-14 11:33N 47°28' W 125°02'3 3.2
2016-Aug-14 10:33N 47°26' W 125°05'5 5.0
2016-Aug-14 09:33N 47°21' W 125°05'5 5.1
2016-Aug-14 08:33N 47°16' W 125°05'5 5.2
2016-Aug-14 07:33N 47°11' W 125°07'5 5.1
2016-Aug-14 06:33N 47°05' W 125°08'13 6.3
2016-Aug-14 04:33N 46°53' W 125°07'8 7.5
2016-Aug-14 03:33N 46°45' W 125°07'7 7.0
2016-Aug-14 02:33N 46°39' W 125°05'7 6.9
2016-Aug-14 01:33N 46°33' W 124°59'  

Dump ship's entire track history